Latest Weather Forecast - Sunday 22nd March 2020 (6 pm)

Forecast Period: 

6:00 pm 22nd March 2020 to 6:00 am 23rd March 2020

Synopsis: Atlantic High Pressure System is the dominant feature
Forecast:

Partly cloudy and breezy, becoming cloudy at times with a few showers

Weather 
Advisory/Warning:

 None

Winds:

ENE-E at 25 - 40 km/h ( 16 - 25 mph )  

Sea Conditions:

Slight to moderate in open water; northeasterly swells 1.2 – 2.2 m

Marine  Advisory/Warning:

 None

Upcoming Tides:
 High: 5:02 am 6:30 pm 
 Low 11:04 pm (22nd) 12:35 pm

Aviation WX

[Source: ADDS]
METAR
TVSA 301400Z 07013KT 9999 SCT022 28/21 Q1015 NOSIG =
TVSA 301100Z 3012/3112 06009KT 9999 SCT018 PROB30 TEMPO 3100/3109 SHRA BKN015 SCT036
TAF
TVSA 301100Z 3012/3112 06009KT 9999 SCT018 PROB30 TEMPO 3100/3109 SHRA BKN015 SCT036 =
SR / SS: 10:01 / 22:16 UTC (Sunrise Sunset 2020-03-30)